This is the latest recevied weather packets stored in our database for station/object SP1BMW-13. If no packets are shown the sender has not sent any weather packets the latest 1 day(s).
| Time | Temp. | Humidity | Pressure | Rain* | Wind** | Luminosity | Snow |
|---|---|---|---|---|---|---|---|
| 1778046351 | 10° C | 96% | 1004.9 hPa | 4.32 mm | 0.45 m/s, 317° | 21 W/m² | - |
| 1778046290 | 10° C | 96% | 1005 hPa | 4.57 mm | 1.34 m/s, 358° | 18 W/m² | - |
| 1778046230 | 10° C | 96% | 1005 hPa | 4.57 mm | 0 m/s | 15 W/m² | - |
| 1778046111 | 10° C | 96% | 1004.9 hPa | 4.57 mm | 0.45 m/s, 315° | 15 W/m² | - |
| 1778046051 | 10° C | 96% | 1005 hPa | 4.32 mm | 1.34 m/s, 30° | 14 W/m² | - |
| 1778045991 | 10° C | 96% | 1005 hPa | 4.57 mm | 0 m/s | 16 W/m² | - |
| 1778045810 | 10° C | 96% | 1005.2 hPa | 4.32 mm | 0 m/s | 13 W/m² | - |
| 1778045750 | 10° C | 96% | 1005.2 hPa | 4.32 mm | 0.89 m/s, 50° | 14 W/m² | - |
| 1778045451 | 10° C | 96% | 1005.2 hPa | 4.32 mm | 0 m/s | 12 W/m² | - |
| 1778045331 | 10° C | 96% | 1005.3 hPa | 4.32 mm | 0.89 m/s, 16° | 14 W/m² | - |
| 1778045271 | 10° C | 96% | 1005.3 hPa | 4.32 mm | 1.79 m/s, 330° | 14 W/m² | - |
| 1778045211 | 10° C | 96% | 1005.2 hPa | 4.32 mm | 0.89 m/s, 65° | 14 W/m² | - |
| 1778045151 | 10° C | 96% | 1005.4 hPa | 4.06 mm | 0.89 m/s, 17° | 15 W/m² | - |
| 1778045091 | 10° C | 96% | 1005.1 hPa | 4.32 mm | 0.45 m/s, 49° | 18 W/m² | - |
| 1778045031 | 10° C | 96% | 1005.1 hPa | 4.32 mm | 1.34 m/s, 320° | 22 W/m² | - |
| 1778044914 | 10° C | 96% | 1005.2 hPa | 4.06 mm | 2.24 m/s, 307° | 22 W/m² | - |
| 1778044791 | 10° C | 96% | 1005 hPa | 4.32 mm | 1.34 m/s, 310° | 19 W/m² | - |
| 1778044611 | 10° C | 96% | 1005.3 hPa | 4.06 mm | 1.34 m/s, 313° | 17 W/m² | - |
| 1778044551 | 10° C | 96% | 1005.1 hPa | 3.81 mm | 1.34 m/s, 46° | 14 W/m² | - |
| 1778044431 | 10° C | 96% | 1005.2 hPa | 4.06 mm | 1.79 m/s, 304° | 14 W/m² | - |
| 1778044371 | 10° C | 96% | 1005.1 hPa | 3.81 mm | 1.34 m/s, 331° | 14 W/m² | - |
| 1778044311 | 9.44° C | 96% | 1005.3 hPa | 3.81 mm | 0.89 m/s, 35° | 12 W/m² | - |
| 1778044251 | 9.44° C | 96% | 1005.4 hPa | 3.81 mm | 0.45 m/s, 308° | 13 W/m² | - |
| 1778044191 | 9.44° C | 96% | 1005.3 hPa | 3.81 mm | 0.45 m/s, 46° | 10 W/m² | - |
| 1778044071 | 9.44° C | 96% | 1005.2 hPa | 3.56 mm | 0.45 m/s, 45° | 10 W/m² | - |
* Rain latest hour (hover to see other rain measurements)
** Current wind speed in m/s (hover to see current wind gust speed)